createdAt,value
2023-04-26T00:00:20.886Z,99102.92
2023-04-26T00:01:23.083Z,99104.63
2023-04-26T00:02:25.970Z,99097.70
2023-04-26T00:03:28.288Z,99107.51
2023-04-26T00:04:31.364Z,99108.36
2023-04-26T00:05:33.789Z,99111.16
2023-04-26T00:06:36.772Z,99106.69
2023-04-26T00:07:39.116Z,99110.31
2023-04-26T00:08:41.862Z,99104.98
2023-04-26T00:09:44.057Z,99105.10
2023-04-26T00:10:46.665Z,99106.91
2023-04-26T00:11:49.028Z,99106.06
2023-04-26T00:12:51.185Z,99100.73
2023-04-26T00:13:53.315Z,99109.58
2023-04-26T00:14:55.524Z,99111.60
2023-04-26T00:15:57.824Z,99105.31
2023-04-26T00:17:00.274Z,99107.35
2023-04-26T00:18:02.988Z,99110.13
2023-04-26T00:19:05.116Z,99110.86
2023-04-26T00:20:08.676Z,99112.56
2023-04-26T00:21:11.003Z,99117.15
2023-04-26T00:22:13.292Z,99113.74
2023-04-26T00:23:15.472Z,99111.83
2023-04-26T00:24:18.200Z,99120.66
2023-04-26T00:25:20.538Z,99121.12
2023-04-26T00:26:23.923Z,99118.47
2023-04-26T00:27:26.124Z,99115.92
2023-04-26T00:28:31.515Z,99119.54
2023-04-26T00:29:34.077Z,99118.69
2023-04-26T00:30:36.479Z,99121.45
2023-04-26T00:31:39.356Z,99120.79
2023-04-26T00:32:41.877Z,99119.83
2023-04-26T00:33:44.236Z,99118.23
2023-04-26T00:34:47.063Z,99113.13
2023-04-26T00:35:49.519Z,99112.31
2023-04-26T00:36:52.268Z,99111.68
2023-04-26T00:37:54.440Z,99115.09
2023-04-26T00:38:56.706Z,99114.34
2023-04-26T00:39:59.371Z,99118.92
2023-04-26T00:41:02.264Z,99122.54
2023-04-26T00:42:04.426Z,99120.84
2023-04-26T00:43:06.705Z,99120.84
2023-04-26T00:44:08.867Z,99122.76
2023-04-26T00:45:11.289Z,99117.65
2023-04-26T00:46:13.937Z,99121.27
2023-04-26T00:47:16.776Z,99123.22
2023-04-26T00:48:20.521Z,99124.07
2023-04-26T00:49:24.511Z,99117.37
2023-04-26T00:50:27.455Z,99125.56
2023-04-26T00:51:29.813Z,99123.86
2023-04-26T00:52:32.135Z,99119.61
2023-04-26T00:53:34.734Z,99122.16
2023-04-26T00:54:37.631Z,99124.08
2023-04-26T00:55:44.117Z,99119.74
2023-04-26T00:56:47.578Z,99116.34
2023-04-26T00:57:49.914Z,99120.91
2023-04-26T00:58:52.264Z,99120.91
2023-04-26T00:59:54.738Z,99120.06
2023-04-26T01:00:56.994Z,99119.21
2023-04-26T01:01:59.275Z,99124.64
2023-04-26T01:03:02.425Z,99115.81
2023-04-26T01:04:05.237Z,99124.00
2023-04-26T01:05:08.393Z,99128.36
2023-04-26T01:06:13.148Z,99117.72
2023-04-26T01:07:15.695Z,99123.25
2023-04-26T01:08:18.428Z,99122.64
2023-04-26T01:09:21.193Z,99123.81
2023-04-26T01:10:23.756Z,99123.70
2023-04-26T01:11:26.447Z,99123.70
2023-04-26T01:12:29.204Z,99127.53
2023-04-26T01:13:32.452Z,99120.72
2023-04-26T01:14:35.294Z,99123.63
2023-04-26T01:15:38.330Z,99127.34
2023-04-26T01:16:40.991Z,99125.09
2023-04-26T01:17:48.102Z,99117.98
2023-04-26T01:18:51.767Z,99119.98
2023-04-26T01:19:54.413Z,99120.23
2023-04-26T01:20:56.691Z,99122.45
2023-04-26T01:21:58.980Z,99118.19
2023-04-26T01:23:01.237Z,99118.53
2023-04-26T01:24:04.590Z,99120.75
2023-04-26T01:25:09.037Z,99127.02
2023-04-26T01:26:12.973Z,99115.84
2023-04-26T01:27:15.544Z,99122.11
2023-04-26T01:28:18.018Z,99114.99
2023-04-26T01:29:21.892Z,99112.47
2023-04-26T01:30:24.296Z,99117.14
2023-04-26T01:31:26.725Z,99117.14
2023-04-26T01:32:28.853Z,99114.58
2023-04-26T01:33:33.205Z,99117.14
2023-04-26T01:34:35.470Z,99115.64
2023-04-26T01:35:37.790Z,99109.47
2023-04-26T01:36:40.484Z,99113.39
2023-04-26T01:37:42.744Z,99112.67
2023-04-26T01:38:44.938Z,99109.27
2023-04-26T01:39:47.113Z,99105.86
2023-04-26T01:40:49.390Z,99111.37
2023-04-26T01:41:51.574Z,99110.31
2023-04-26T01:42:53.826Z,99114.23
2023-04-26T01:43:56.180Z,99108.91
2023-04-26T01:45:00.921Z,99115.18
2023-04-26T01:46:05.216Z,99105.64
2023-04-26T01:47:07.544Z,99110.30
2023-04-26T01:48:09.650Z,99107.75
2023-04-26T01:49:11.935Z,99104.34
2023-04-26T01:50:14.722Z,99110.80
2023-04-26T01:51:16.871Z,99104.97
2023-04-26T01:52:19.501Z,99111.13
2023-04-26T01:53:22.984Z,99107.89
2023-04-26T01:54:25.428Z,99113.20
2023-04-26T01:55:28.480Z,99104.48
2023-04-26T01:56:30.735Z,99111.59
2023-04-26T01:57:33.620Z,99107.14
2023-04-26T01:58:36.001Z,99103.63
2023-04-26T01:59:38.999Z,99100.02
2023-04-26T02:00:41.387Z,99104.48
2023-04-26T02:01:43.916Z,99105.33
2023-04-26T02:02:47.384Z,99104.48
2023-04-26T02:03:49.916Z,99099.92
2023-04-26T02:04:54.114Z,99098.97
2023-04-26T02:05:58.276Z,99104.28
2023-04-26T02:07:01.797Z,99103.27
2023-04-26T02:08:04.113Z,99102.31
2023-04-26T02:09:06.994Z,99103.06
2023-04-26T02:10:09.883Z,99101.36
2023-04-26T02:11:12.040Z,99104.73
2023-04-26T02:12:14.859Z,99107.30
2023-04-26T02:13:17.058Z,99100.08
2023-04-26T02:14:19.235Z,99110.50
2023-04-26T02:15:21.556Z,99106.89
2023-04-26T02:16:25.042Z,99101.68
2023-04-26T02:17:27.362Z,99104.98
2023-04-26T02:18:29.611Z,99103.28
2023-04-26T02:19:31.893Z,99099.48
2023-04-26T02:20:34.233Z,99103.84
2023-04-26T02:21:56.943Z,99104.69
2023-04-26T02:22:59.397Z,99109.87
2023-04-26T02:24:01.644Z,99108.06
2023-04-26T02:25:06.110Z,99106.26
2023-04-26T02:26:10.018Z,99103.50
2023-04-26T02:27:12.355Z,99107.02
2023-04-26T02:28:15.421Z,99107.96
2023-04-26T02:29:17.650Z,99102.65
2023-04-26T02:30:19.959Z,99106.05
2023-04-26T02:31:23.090Z,99102.45
2023-04-26T02:32:25.603Z,99106.05
2023-04-26T02:33:27.868Z,99106.05
2023-04-26T02:34:30.652Z,99112.22
2023-04-26T02:35:32.858Z,99111.57
2023-04-26T02:36:35.315Z,99109.87
2023-04-26T02:37:37.641Z,99106.49
2023-04-26T02:38:40.276Z,99102.23
2023-04-26T02:39:43.533Z,99111.05
2023-04-26T02:40:46.093Z,99097.77
2023-04-26T02:41:48.954Z,99096.83
2023-04-26T02:42:51.265Z,99097.67
2023-04-26T02:43:54.061Z,99097.77
2023-04-26T02:44:56.388Z,99103.94
2023-04-26T02:45:59.002Z,99102.85
2023-04-26T02:47:01.584Z,99100.33
2023-04-26T02:48:04.486Z,99114.33
2023-04-26T02:49:07.366Z,99110.72
2023-04-26T02:50:10.615Z,99106.26
2023-04-26T02:51:13.220Z,99103.60
2023-04-26T02:52:15.538Z,99104.16
2023-04-26T02:53:17.675Z,99103.95
2023-04-26T02:54:19.751Z,99108.20
2023-04-26T02:55:22.994Z,99101.80
2023-04-26T02:56:25.653Z,99094.80
2023-04-26T02:57:31.115Z,99089.28
2023-04-26T02:58:33.406Z,99098.09
2023-04-26T02:59:35.583Z,99097.89
2023-04-26T03:00:38.090Z,99093.23
2023-04-26T03:01:40.319Z,99089.52
2023-04-26T03:02:42.809Z,99089.38
2023-04-26T03:03:45.418Z,99089.38
2023-04-26T03:04:47.904Z,99091.83
2023-04-26T03:05:50.213Z,99084.61
2023-04-26T03:06:52.968Z,99084.40
2023-04-26T03:07:55.627Z,99084.19
2023-04-26T03:08:58.353Z,99087.46
2023-04-26T03:10:00.865Z,99083.84
2023-04-26T03:11:03.265Z,99080.88
2023-04-26T03:12:07.660Z,99078.76
2023-04-26T03:13:10.548Z,99079.72
2023-04-26T03:14:13.426Z,99073.95
2023-04-26T03:15:16.140Z,99081.50
2023-04-26T03:16:19.789Z,99079.59
2023-04-26T03:17:22.140Z,99080.44
2023-04-26T03:18:24.337Z,99080.09
2023-04-26T03:19:27.442Z,99082.54
2023-04-26T03:20:30.465Z,99085.09
2023-04-26T03:21:32.859Z,99088.50
2023-04-26T03:22:35.145Z,99092.96
2023-04-26T03:23:37.672Z,99083.07
2023-04-26T03:24:39.803Z,99086.58
2023-04-26T03:25:41.971Z,99082.97
2023-04-26T03:26:44.345Z,99082.01
2023-04-26T03:27:48.230Z,99087.11
2023-04-26T03:28:50.730Z,99091.34
2023-04-26T03:29:53.060Z,99090.27
2023-04-26T03:30:55.454Z,99084.20
2023-04-26T03:31:57.866Z,99084.31
2023-04-26T03:33:00.175Z,99085.80
2023-04-26T03:34:02.855Z,99087.51
2023-04-26T03:35:05.557Z,99082.30
2023-04-26T03:36:08.807Z,99091.02
2023-04-26T03:37:11.298Z,99088.36
2023-04-26T03:38:13.948Z,99094.95
2023-04-26T03:39:16.344Z,99093.67
2023-04-26T03:40:19.300Z,99091.12
2023-04-26T03:41:22.246Z,99091.87
2023-04-26T03:42:24.404Z,99093.47
2023-04-26T03:43:26.584Z,99102.41
2023-04-26T03:44:30.947Z,99101.34
2023-04-26T03:45:33.387Z,99103.25
2023-04-26T03:46:36.166Z,99099.84
2023-04-26T03:47:39.211Z,99105.91
2023-04-26T03:48:42.103Z,99109.84
2023-04-26T03:49:44.323Z,99111.77
2023-04-26T03:50:46.687Z,99103.89
2023-04-26T03:51:48.959Z,99101.98
2023-04-26T03:52:51.606Z,99105.27
2023-04-26T03:53:54.233Z,99111.55
2023-04-26T03:54:57.258Z,99107.30
2023-04-26T03:55:59.316Z,99113.89
2023-04-26T03:57:01.582Z,99114.95
2023-04-26T03:58:03.972Z,99116.66
2023-04-26T03:59:06.277Z,99112.19
2023-04-26T04:00:10.727Z,99104.21
2023-04-26T04:01:14.839Z,99106.88
2023-04-26T04:02:17.129Z,99112.94
2023-04-26T04:03:19.629Z,99108.36
2023-04-26T04:04:22.311Z,99105.80
2023-04-26T04:05:25.211Z,99104.95
2023-04-26T04:06:27.675Z,99106.44
2023-04-26T04:07:29.937Z,99102.08
2023-04-26T04:08:32.198Z,99105.34
2023-04-26T04:09:35.341Z,99103.53
2023-04-26T04:10:37.996Z,99104.50
2023-04-26T04:11:40.305Z,99107.05
2023-04-26T04:12:42.608Z,99106.20
2023-04-26T04:13:45.195Z,99107.80
2023-04-26T04:14:47.482Z,99111.52
2023-04-26T04:15:49.888Z,99100.66
2023-04-26T04:16:52.268Z,99112.05
2023-04-26T04:17:55.109Z,99107.80
2023-04-26T04:18:57.521Z,99106.94
2023-04-26T04:20:03.781Z,99100.45
2023-04-26T04:21:06.033Z,99100.66
2023-04-26T04:22:08.864Z,99093.42
2023-04-26T04:23:11.635Z,99100.45
2023-04-26T04:24:16.394Z,99096.83
2023-04-26T04:25:18.823Z,99096.09
2023-04-26T04:26:21.155Z,99091.50
2023-04-26T04:27:23.695Z,99094.17
2023-04-26T04:28:25.984Z,99087.78
2023-04-26T04:29:30.536Z,99085.72
2023-04-26T04:30:33.109Z,99084.02
2023-04-26T04:31:36.171Z,99080.40
2023-04-26T04:32:38.764Z,99086.57
2023-04-26T04:33:41.945Z,99084.55
2023-04-26T04:34:44.384Z,99094.23
2023-04-26T04:35:47.063Z,99088.91
2023-04-26T04:36:50.669Z,99083.37
2023-04-26T04:37:53.120Z,99080.48
2023-04-26T04:38:55.416Z,99084.00
2023-04-26T04:39:58.701Z,99083.37
2023-04-26T04:41:01.132Z,99087.62
2023-04-26T04:42:03.408Z,99095.25
2023-04-26T04:43:05.657Z,99098.87
2023-04-26T04:44:08.551Z,99096.09
2023-04-26T04:45:12.348Z,99097.16
2023-04-26T04:46:16.444Z,99092.58
2023-04-26T04:47:18.792Z,99099.72
2023-04-26T04:48:22.303Z,99090.77
2023-04-26T04:49:25.258Z,99094.28
2023-04-26T04:50:28.325Z,99098.65
2023-04-26T04:51:31.825Z,99093.22
2023-04-26T04:52:34.161Z,99095.88
2023-04-26T04:53:36.293Z,99093.33
2023-04-26T04:54:38.580Z,99087.59
2023-04-26T04:55:40.936Z,99089.52
2023-04-26T04:56:45.618Z,99084.19
2023-04-26T04:57:49.465Z,99084.38
2023-04-26T04:58:51.874Z,99080.35
2023-04-26T04:59:55.028Z,99085.89
2023-04-26T05:00:57.531Z,99092.70
2023-04-26T05:02:04.582Z,99082.91
2023-04-26T05:03:07.142Z,99080.95
2023-04-26T05:04:09.827Z,99085.20
2023-04-26T05:05:13.071Z,99084.13
2023-04-26T05:06:16.477Z,99084.98
2023-04-26T05:07:19.685Z,99082.84
2023-04-26T05:08:23.816Z,99074.11
2023-04-26T05:09:26.272Z,99077.63
2023-04-26T05:10:28.627Z,99084.54
2023-04-26T05:11:32.085Z,99077.41
2023-04-26T05:12:34.696Z,99077.14
2023-04-26T05:13:37.414Z,99082.36
2023-04-26T05:14:40.963Z,99081.40
2023-04-26T05:15:43.246Z,99083.84
2023-04-26T05:16:46.159Z,99079.59
2023-04-26T05:17:48.959Z,99082.98
2023-04-26T05:18:56.267Z,99079.59
2023-04-26T05:19:58.521Z,99081.91
2023-04-26T05:21:01.589Z,99082.98
2023-04-26T05:22:04.273Z,99081.80
2023-04-26T05:23:06.893Z,99086.05
2023-04-26T05:24:09.605Z,99081.91
2023-04-26T05:25:12.088Z,99080.95
2023-04-26T05:26:17.130Z,99084.36
2023-04-26T05:27:38.401Z,99082.55
2023-04-26T05:28:45.127Z,99082.40
2023-04-26T05:30:01.158Z,99091.38
2023-04-26T05:31:11.261Z,99089.31
2023-04-26T05:32:27.934Z,99091.86
2023-04-26T05:33:44.639Z,99091.02
2023-04-26T05:34:54.933Z,99092.72
2023-04-26T05:35:57.218Z,99096.97
2023-04-26T05:37:00.784Z,99100.81
2023-04-26T05:38:03.188Z,99097.67
2023-04-26T05:39:05.360Z,99102.14
2023-04-26T05:40:09.082Z,99098.74
2023-04-26T05:41:11.432Z,99094.27
2023-04-26T05:42:15.217Z,99105.77
2023-04-26T05:43:19.595Z,99107.80
2023-04-26T05:44:22.009Z,99101.52
2023-04-26T05:45:24.717Z,99103.55
2023-04-26T05:46:27.322Z,99102.70
2023-04-26T05:47:30.559Z,99100.26
2023-04-26T05:49:40.439Z,99099.59
2023-04-26T05:50:43.710Z,99103.88
2023-04-26T05:51:46.349Z,99105.84
2023-04-26T05:52:48.541Z,99111.39
2023-04-26T05:53:51.003Z,99115.12
2023-04-26T05:54:53.668Z,99116.93
2023-04-26T05:55:56.201Z,99109.91
2023-04-26T05:56:59.319Z,99111.72
2023-04-26T05:58:03.027Z,99105.43
2023-04-26T05:59:05.212Z,99115.01
2023-04-26T06:00:10.050Z,99106.06
2023-04-26T06:01:18.809Z,99113.09
2023-04-26T06:02:21.105Z,99108.36
2023-04-26T06:03:23.980Z,99111.88
2023-04-26T06:04:26.728Z,99107.28
2023-04-26T06:05:37.696Z,99109.73
2023-04-26T06:06:40.598Z,99100.66
2023-04-26T06:07:42.990Z,99111.95
2023-04-26T06:08:45.938Z,99108.44
2023-04-26T06:09:48.852Z,99098.52
2023-04-26T06:10:52.343Z,99109.03
2023-04-26T06:11:54.965Z,99106.37
2023-04-26T06:12:57.383Z,99107.11
2023-04-26T06:14:01.522Z,99115.95
2023-04-26T06:15:05.047Z,99114.13
2023-04-26T06:16:10.173Z,99104.22
2023-04-26T06:17:13.089Z,99102.52
2023-04-26T06:18:15.693Z,99096.70
2023-04-26T06:19:17.926Z,99102.74
2023-04-26T06:20:20.918Z,99101.04
2023-04-26T06:21:23.992Z,99110.73
2023-04-26T06:22:26.916Z,99103.84
2023-04-26T06:23:30.351Z,99112.80
2023-04-26T06:24:33.030Z,99105.88
2023-04-26T06:25:36.475Z,99108.66
2023-04-26T06:26:38.807Z,99112.17
2023-04-26T06:27:41.986Z,99105.25
2023-04-26T06:28:44.468Z,99107.06
2023-04-26T06:29:46.746Z,99110.47
2023-04-26T06:30:49.267Z,99108.55
2023-04-26T06:31:51.690Z,99103.22
2023-04-26T06:32:55.180Z,99104.81
2023-04-26T06:33:57.458Z,99110.63
2023-04-26T06:35:00.716Z,99106.88
2023-04-26T06:36:03.967Z,99109.32
2023-04-26T06:37:06.401Z,99110.80
2023-04-26T06:38:08.790Z,99105.47
2023-04-26T06:39:11.435Z,99104.36
2023-04-26T06:40:14.973Z,99108.62
2023-04-26T06:41:17.996Z,99103.29
2023-04-26T06:42:22.152Z,99102.22
2023-04-26T06:44:35.120Z,99107.45
2023-04-26T06:45:39.653Z,99104.99
2023-04-26T06:46:43.631Z,99104.03
2023-04-26T06:47:46.276Z,99112.02
2023-04-26T06:48:48.682Z,99105.73
2023-04-26T06:49:51.458Z,99112.02
2023-04-26T06:50:54.167Z,99111.17
2023-04-26T06:51:56.401Z,99110.31
2023-04-26T06:52:58.658Z,99100.85
2023-04-26T06:54:00.823Z,99108.84
2023-04-26T06:55:04.144Z,99098.33
2023-04-26T06:56:07.546Z,99107.28
2023-04-26T06:57:09.720Z,99105.47
2023-04-26T06:58:12.090Z,99104.00
2023-04-26T06:59:14.609Z,99111.02
2023-04-26T07:00:17.182Z,99105.81
2023-04-26T07:01:19.388Z,99107.63
2023-04-26T07:02:22.065Z,99106.66
2023-04-26T07:03:25.065Z,99103.14
2023-04-26T07:04:27.790Z,99105.70
2023-04-26T07:05:30.391Z,99114.66
2023-04-26T07:06:32.762Z,99105.81
2023-04-26T07:07:34.921Z,99112.09
2023-04-26T07:08:36.973Z,99104.95
2023-04-26T07:09:39.155Z,99107.63
2023-04-26T07:10:41.808Z,99111.02
2023-04-26T07:11:46.067Z,99112.72
2023-04-26T07:12:48.307Z,99109.84
2023-04-26T07:13:50.707Z,99104.25
2023-04-26T07:14:53.051Z,99101.48
2023-04-26T07:15:55.316Z,99107.43
2023-04-26T07:16:57.641Z,99110.09
2023-04-26T07:18:00.302Z,99108.39
2023-04-26T07:19:02.562Z,99120.75
2023-04-26T07:20:06.176Z,99125.12
2023-04-26T07:21:08.616Z,99119.67
2023-04-26T07:22:11.201Z,99122.45
2023-04-26T07:23:13.365Z,99115.20
2023-04-26T07:24:15.657Z,99115.94
2023-04-26T07:25:18.925Z,99115.67
2023-04-26T07:26:25.829Z,99116.41
2023-04-26T07:27:28.053Z,99109.16
2023-04-26T07:28:30.845Z,99119.59
2023-04-26T07:29:33.133Z,99108.93
2023-04-26T07:30:35.555Z,99123.84
2023-04-26T07:31:38.094Z,99116.58
2023-04-26T07:32:40.210Z,99121.77
2023-04-26T07:33:42.995Z,99119.72
2023-04-26T07:34:45.131Z,99107.98
2023-04-26T07:35:56.196Z,99109.45
2023-04-26T07:36:58.561Z,99109.22
2023-04-26T07:38:01.036Z,99108.84
2023-04-26T07:39:03.505Z,99107.88
2023-04-26T07:40:07.210Z,99109.47
2023-04-26T07:41:09.675Z,99108.27
2023-04-26T07:42:11.896Z,99109.47
2023-04-26T07:43:14.188Z,99113.38
2023-04-26T07:44:17.102Z,99115.55
2023-04-26T07:45:19.869Z,99112.41
2023-04-26T07:46:22.074Z,99109.24
2023-04-26T07:47:24.337Z,99108.80
2023-04-26T07:48:27.061Z,99106.63
2023-04-26T07:49:29.156Z,99099.36
2023-04-26T07:50:31.460Z,99104.69
2023-04-26T07:51:35.808Z,99104.69
2023-04-26T07:52:38.255Z,99113.40
2023-04-26T07:53:41.063Z,99109.03
2023-04-26T07:54:45.538Z,99108.21
2023-04-26T07:55:47.861Z,99109.87
2023-04-26T07:56:50.619Z,99113.28
2023-04-26T07:57:52.799Z,99105.16
2023-04-26T07:58:55.021Z,99109.52
2023-04-26T07:59:58.368Z,99111.22
2023-04-26T08:01:01.647Z,99108.31
2023-04-26T08:02:04.546Z,99110.75
2023-04-26T08:03:06.936Z,99113.14
2023-04-26T08:04:09.543Z,99113.88
2023-04-26T08:05:13.960Z,99112.66
2023-04-26T08:06:16.778Z,99114.24
2023-04-26T08:07:19.469Z,99125.53
2023-04-26T08:08:22.672Z,99121.62
2023-04-26T08:09:25.559Z,99117.01
2023-04-26T08:10:27.888Z,99123.08
2023-04-26T08:11:30.131Z,99122.84
2023-04-26T08:12:34.041Z,99124.30
2023-04-26T08:13:36.475Z,99119.53
2023-04-26T08:14:38.740Z,99125.48
2023-04-26T08:15:41.329Z,99131.42
2023-04-26T08:16:44.051Z,99133.97
2023-04-26T08:17:46.432Z,99128.63
2023-04-26T08:18:48.681Z,99130.05
2023-04-26T08:19:51.174Z,99131.76
2023-04-26T08:20:53.653Z,99135.16
2023-04-26T08:21:56.019Z,99138.55
2023-04-26T08:22:59.228Z,99135.16
2023-04-26T08:24:02.110Z,99136.25
2023-04-26T08:25:05.470Z,99132.03
2023-04-26T08:26:08.962Z,99135.67
2023-04-26T08:27:13.150Z,99131.03
2023-04-26T08:28:15.768Z,99131.76
2023-04-26T08:29:19.038Z,99129.56
2023-04-26T08:30:21.864Z,99125.56
2023-04-26T08:31:25.146Z,99131.11
2023-04-26T08:32:27.751Z,99131.46
2023-04-26T08:33:29.975Z,99121.95
2023-04-26T08:34:32.187Z,99121.45
2023-04-26T08:35:34.505Z,99131.73
2023-04-26T08:36:37.775Z,99131.36
2023-04-26T08:37:39.976Z,99127.46
2023-04-26T08:38:42.806Z,99125.26
2023-04-26T08:39:44.937Z,99120.51
2023-04-26T08:40:47.105Z,99121.11
2023-04-26T08:41:58.688Z,99124.37
2023-04-26T08:43:01.018Z,99123.72
2023-04-26T08:44:07.707Z,99124.31
2023-04-26T08:45:10.520Z,99119.81
2023-04-26T08:46:16.883Z,99126.86
2023-04-26T08:47:22.700Z,99125.88
2023-04-26T08:48:27.408Z,99128.81
2023-04-26T08:49:39.273Z,99129.06
2023-04-26T08:50:44.005Z,99129.19
2023-04-26T08:51:47.798Z,99127.36
2023-04-26T08:52:51.832Z,99126.39
2023-04-26T08:53:57.411Z,99131.02
2023-04-26T08:55:01.131Z,99135.92
2023-04-26T08:56:06.310Z,99135.92
2023-04-26T08:57:09.317Z,99135.20
2023-04-26T08:58:11.659Z,99125.48
2023-04-26T08:59:15.184Z,99129.85
2023-04-26T09:00:18.778Z,99127.77
2023-04-26T09:01:23.406Z,99130.77
2023-04-26T09:02:26.829Z,99127.70
2023-04-26T09:03:30.691Z,99129.97
2023-04-26T09:04:33.226Z,99124.95
2023-04-26T09:05:35.700Z,99125.55
2023-04-26T09:06:38.515Z,99122.62
2023-04-26T09:08:56.568Z,99123.13
2023-04-26T09:09:59.541Z,99126.44
2023-04-26T09:11:03.090Z,99116.84
2023-04-26T09:12:05.626Z,99114.77
2023-04-26T09:13:09.696Z,99115.48
2023-04-26T09:14:12.020Z,99109.87
2023-04-26T09:15:15.531Z,99111.57
2023-04-26T09:16:18.466Z,99113.23
2023-04-26T09:17:35.222Z,99113.23
2023-04-26T09:18:51.590Z,99108.73
2023-04-26T09:19:54.496Z,99110.56
2023-04-26T09:21:04.851Z,99106.91
2023-04-26T09:22:06.983Z,99113.23
2023-04-26T09:23:09.926Z,99112.27
2023-04-26T09:24:14.153Z,99107.89
2023-04-26T09:25:18.358Z,99108.90
2023-04-26T09:26:21.271Z,99115.23
2023-04-26T09:27:32.364Z,99112.42
2023-04-26T09:28:35.234Z,99109.58
2023-04-26T09:29:37.413Z,99119.31
2023-04-26T09:30:39.597Z,99112.27
2023-04-26T09:31:49.582Z,99110.56
2023-04-26T09:32:59.936Z,99111.57
2023-04-26T09:34:02.231Z,99108.90
2023-04-26T09:35:05.265Z,99117.61
2023-04-26T09:36:12.009Z,99110.56
2023-04-26T09:37:14.299Z,99112.98
2023-04-26T09:38:18.249Z,99108.47
2023-04-26T09:40:50.355Z,99116.28
2023-04-26T09:41:52.791Z,99121.00
2023-04-26T09:43:06.963Z,99114.09
2023-04-26T09:44:23.744Z,99113.11
2023-04-26T09:45:27.161Z,99116.63
2023-04-26T09:46:29.430Z,99122.27
2023-04-26T09:47:31.684Z,99131.28
2023-04-26T09:48:34.569Z,99128.14
2023-04-26T09:49:50.400Z,99130.81
2023-04-26T09:50:54.490Z,99130.09
2023-04-26T09:52:06.643Z,99132.91
2023-04-26T09:53:08.956Z,99127.25
2023-04-26T09:54:12.109Z,99141.85
2023-04-26T09:55:31.140Z,99132.26
2023-04-26T09:56:22.145Z,99135.31
2023-04-26T09:57:24.477Z,99132.92
2023-04-26T09:58:26.818Z,99138.66
2023-04-26T10:00:54.951Z,99133.05
2023-04-26T10:01:57.326Z,99136.90
2023-04-26T10:02:59.580Z,99141.64
2023-04-26T10:04:02.138Z,99142.75
2023-04-26T10:05:07.679Z,99142.75
2023-04-26T10:06:11.573Z,99143.00
2023-04-26T10:07:15.743Z,99144.70
2023-04-26T10:08:18.344Z,99139.60
2023-04-26T10:09:21.466Z,99144.25
2023-04-26T10:10:23.719Z,99149.60
2023-04-26T10:11:26.891Z,99146.08
2023-04-26T10:12:29.344Z,99153.25
2023-04-26T10:13:31.937Z,99148.75
2023-04-26T10:14:34.973Z,99141.80
2023-04-26T10:15:38.959Z,99150.80
2023-04-26T10:16:43.243Z,99145.70
2023-04-26T10:17:45.742Z,99146.80
2023-04-26T10:18:48.513Z,99155.66
2023-04-26T10:19:54.657Z,99151.29
2023-04-26T10:21:03.856Z,99144.97
2023-04-26T10:22:15.572Z,99150.44
2023-04-26T10:23:22.838Z,99152.27
2023-04-26T10:24:26.536Z,99145.95
2023-04-26T10:25:40.324Z,99146.80
2023-04-26T10:26:50.610Z,99147.64
2023-04-26T10:27:52.949Z,99140.47
2023-04-26T10:29:00.819Z,99141.45
2023-04-26T10:30:03.674Z,99145.09
2023-04-26T10:31:06.012Z,99149.59
2023-04-26T10:32:09.433Z,99149.59
2023-04-26T10:33:12.576Z,99151.29
2023-04-26T10:34:19.480Z,99152.98
2023-04-26T10:35:26.064Z,99151.04
2023-04-26T10:36:28.971Z,99146.42
2023-04-26T10:37:31.402Z,99149.60
2023-04-26T10:38:35.571Z,99150.30
2023-04-26T10:39:42.813Z,99150.05
2023-04-26T10:40:45.230Z,99146.27
2023-04-26T10:41:47.903Z,99146.14
2023-04-26T10:42:50.155Z,99149.55
2023-04-26T10:43:52.873Z,99142.25
2023-04-26T10:47:47.679Z,99137.55
2023-04-26T10:48:50.989Z,99143.66
2023-04-26T10:50:09.241Z,99144.38
2023-04-26T10:51:12.270Z,99140.61
2023-04-26T10:52:16.277Z,99148.25
2023-04-26T10:53:19.018Z,99143.88
2023-04-26T10:54:22.067Z,99148.25
2023-04-26T10:55:41.245Z,99147.15
2023-04-26T10:56:50.116Z,99150.67
2023-04-26T10:57:53.503Z,99142.65
2023-04-26T11:00:20.598Z,99146.02
2023-04-26T11:01:25.010Z,99147.71
2023-04-26T11:02:52.649Z,99150.13
2023-04-26T11:04:01.314Z,99148.05
2023-04-26T11:05:04.182Z,99146.95
2023-04-26T11:06:11.534Z,99147.51
2023-04-26T11:07:13.905Z,99150.78
2023-04-26T11:08:20.976Z,99151.75
2023-04-26T11:09:38.332Z,99149.80
2023-04-26T11:10:41.384Z,99153.20
2023-04-26T11:11:52.675Z,99150.39
2023-04-26T11:13:02.794Z,99149.55
2023-04-26T11:14:05.626Z,99146.87
2023-04-26T11:15:09.235Z,99151.24
2023-04-26T11:16:14.566Z,99149.55
2023-04-26T11:17:17.401Z,99148.57
2023-04-26T11:18:20.910Z,99144.91
2023-04-26T11:19:23.583Z,99144.78
2023-04-26T11:20:30.847Z,99146.36
2023-04-26T11:21:33.173Z,99142.67
2023-04-26T11:22:39.943Z,99149.59
2023-04-26T11:23:42.901Z,99143.13
2023-04-26T11:24:46.388Z,99150.18
2023-04-26T11:25:48.802Z,99143.98
2023-04-26T11:26:51.460Z,99150.18
2023-04-26T11:29:09.276Z,99137.82
2023-04-26T11:30:12.557Z,99143.27
2023-04-26T11:31:15.868Z,99138.63
2023-04-26T11:32:19.672Z,99135.83
2023-04-26T11:33:22.742Z,99139.22
2023-04-26T11:34:35.409Z,99145.42
2023-04-26T11:35:38.948Z,99138.24
2023-04-26T11:36:41.861Z,99135.30
2023-04-26T11:37:45.302Z,99142.33
2023-04-26T11:38:48.078Z,99139.52
2023-04-26T11:39:50.281Z,99139.26
2023-04-26T11:41:01.919Z,99138.41
2023-04-26T11:42:09.061Z,99143.63
2023-04-26T11:43:11.912Z,99140.11
2023-04-26T11:44:19.537Z,99143.63
2023-04-26T11:45:21.830Z,99145.46
2023-04-26T11:46:25.014Z,99145.33
2023-04-26T11:47:27.894Z,99142.66
2023-04-26T11:48:31.224Z,99148.86
2023-04-26T11:49:36.349Z,99135.60
2023-04-26T11:50:40.481Z,99144.48
2023-04-26T11:51:43.300Z,99147.42
2023-04-26T11:52:45.730Z,99147.42
2023-04-26T11:53:50.287Z,99148.39
2023-04-26T11:55:01.715Z,99148.39
2023-04-26T11:57:30.252Z,99129.41
2023-04-26T11:58:32.629Z,99135.23
2023-04-26T11:59:35.509Z,99143.13
2023-04-26T12:00:39.693Z,99141.44
2023-04-26T12:01:46.474Z,99135.23
2023-04-26T12:02:49.288Z,99140.45
2023-04-26T12:05:06.986Z,99131.36
2023-04-26T12:06:11.287Z,99134.84
2023-04-26T12:07:18.000Z,99131.91
2023-04-26T12:08:25.363Z,99136.97
2023-04-26T12:09:27.871Z,99134.16
2023-04-26T12:10:38.176Z,99138.41
2023-04-26T12:11:40.715Z,99134.75
2023-04-26T12:12:53.458Z,99137.89
2023-04-26T12:13:58.771Z,99128.88
2023-04-26T12:15:00.905Z,99133.13
2023-04-26T12:17:14.422Z,99125.64
2023-04-26T12:18:17.962Z,99133.67
2023-04-26T12:19:24.809Z,99131.72
2023-04-26T12:21:42.812Z,99127.23
2023-04-26T12:23:05.114Z,99130.02
2023-04-26T12:24:07.572Z,99122.70
2023-04-26T12:25:10.014Z,99124.41
2023-04-26T12:26:13.114Z,99122.45
2023-04-26T12:27:21.812Z,99124.98
2023-04-26T12:28:26.002Z,99122.05
2023-04-26T12:29:28.244Z,99124.56
2023-04-26T12:30:30.836Z,99126.98
2023-04-26T12:31:38.964Z,99120.77
2023-04-26T12:32:41.229Z,99120.77
2023-04-26T12:33:44.179Z,99127.95
2023-04-26T12:34:47.248Z,99132.33
2023-04-26T12:35:50.284Z,99125.28
2023-04-26T12:36:53.793Z,99126.26
2023-04-26T12:37:56.784Z,99124.56
2023-04-26T12:38:59.620Z,99120.22
2023-04-26T12:40:02.795Z,99126.39
2023-04-26T12:41:05.088Z,99128.09
2023-04-26T12:42:07.732Z,99127.23
2023-04-26T12:43:11.769Z,99134.29
2023-04-26T12:44:14.095Z,99134.29